Time;durP1;ratioP1;P1;durP2;ratioP2;P2;SDS_P1;SDS_P2;PMS_P1;PMS_P2;Temp;Humidity;BMP_temperature;BMP_pressure;BME280_temperature;BME280_humidity;BME280_pressure;Samples;Min_cycle;Max_cycle;Signal;HPM_P1;HPM_P2
2023/12/21 08:29:16;;;;;;;914.67;841.80;;;9.80;99.90;;;;;;5048600;28;20467;-85
2023/12/21 08:31:44;;;;;;;912.73;840.10;;;9.90;99.90;;;;;;5052515;28;20530;-85
2023/12/21 08:34:11;;;;;;;912.47;842.30;;;9.80;99.90;;;;;;5053157;28;20443;-82
2023/12/21 08:36:37;;;;;;;945.07;877.57;;;9.80;99.90;;;;;;5053796;28;20916;-80
2023/12/21 08:39:04;;;;;;;998.17;926.27;;;9.70;99.90;;;;;;5053419;28;20797;-81
2023/12/21 08:41:31;;;;;;;1020.67;946.40;;;9.60;99.90;;;;;;5053395;28;20454;-81
2023/12/21 08:43:58;;;;;;;1019.13;942.17;;;9.60;99.90;;;;;;5053216;28;20466;-82
2023/12/21 08:46:26;;;;;;;987.40;910.83;;;9.60;99.90;;;;;;5053897;28;20465;-81
2023/12/21 08:48:53;;;;;;;958.67;885.67;;;9.60;99.90;;;;;;5053427;28;21003;-82
2023/12/21 08:51:22;;;;;;;982.13;906.73;;;9.50;99.90;;;;;;5053584;28;20453;-80
2023/12/21 08:53:49;;;;;;;954.87;878.47;;;9.50;99.90;;;;;;5053408;28;20458;-80
2023/12/21 08:56:16;;;;;;;971.57;896.40;;;9.60;99.90;;;;;;5053735;28;20456;-81
2023/12/21 08:58:43;;;;;;;953.60;878.73;;;9.50;99.90;;;;;;5052594;28;20451;-80
2023/12/21 09:01:10;;;;;;;930.30;855.07;;;9.60;99.90;;;;;;5051530;28;20450;-80
2023/12/21 09:03:38;;;;;;;887.77;811.83;;;9.50;99.90;;;;;;5052735;28;20447;-82
2023/12/21 09:06:06;;;;;;;872.10;794.97;;;9.50;99.90;;;;;;5053296;28;20462;-80
2023/12/21 09:08:33;;;;;;;914.27;838.47;;;9.50;99.90;;;;;;5052401;28;21002;-81
2023/12/21 09:11:00;;;;;;;874.23;798.63;;;9.50;99.90;;;;;;5053144;28;20458;-81
2023/12/21 09:13:27;;;;;;;906.87;829.77;;;9.70;99.90;;;;;;5052567;28;20462;-81
2023/12/21 09:15:55;;;;;;;886.53;808.80;;;9.60;99.90;;;;;;5052928;28;20455;-81
2023/12/21 09:18:22;;;;;;;877.90;800.47;;;9.50;99.90;;;;;;5053155;28;20798;-81
2023/12/21 09:20:50;;;;;;;867.80;789.53;;;9.50;99.90;;;;;;5053247;28;20942;-81
2023/12/21 09:23:18;;;;;;;881.53;803.27;;;9.50;99.90;;;;;;5052658;28;20523;-81
2023/12/21 09:25:44;;;;;;;880.00;804.07;;;9.60;99.90;;;;;;5053064;28;20455;-81
2023/12/21 09:28:11;;;;;;;883.97;806.67;;;9.60;99.90;;;;;;5052539;28;20463;-79
2023/12/21 09:30:38;;;;;;;910.50;831.80;;;9.60;99.90;;;;;;5052915;28;20493;-80
2023/12/21 09:33:05;;;;;;;886.53;809.37;;;9.60;99.90;;;;;;5052507;28;20457;-81
2023/12/21 09:35:32;;;;;;;877.93;801.77;;;9.50;99.90;;;;;;5052951;28;20447;-80
2023/12/21 09:38:00;;;;;;;884.87;808.97;;;9.70;99.90;;;;;;5052872;28;20457;-80
2023/12/21 09:40:27;;;;;;;864.10;788.00;;;9.60;99.90;;;;;;5052632;28;20448;-79
2023/12/21 09:42:57;;;;;;;865.33;788.27;;;9.60;99.90;;;;;;5051991;28;20970;-79
2023/12/21 09:45:25;;;;;;;873.37;796.57;;;9.70;99.90;;;;;;5052682;28;20938;-80
2023/12/21 09:47:53;;;;;;;891.83;812.43;;;9.70;99.90;;;;;;5052469;28;20997;-80
2023/12/21 09:50:21;;;;;;;903.07;828.77;;;9.60;99.90;;;;;;5052585;28;20483;-80
2023/12/21 09:52:50;;;;;;;888.17;809.40;;;9.60;99.90;;;;;;5052816;28;20467;-80
2023/12/21 09:55:20;;;;;;;876.43;799.53;;;9.70;99.90;;;;;;5052278;28;20440;-79
2023/12/21 09:57:47;;;;;;;873.50;796.60;;;9.70;99.90;;;;;;5052407;28;20480;-79
2023/12/21 10:00:15;;;;;;;893.57;820.07;;;9.70;99.90;;;;;;5051812;28;20811;-80
2023/12/21 10:02:42;;;;;;;859.57;785.80;;;9.60;99.90;;;;;;5051679;28;20451;-79
2023/12/21 10:05:10;;;;;;;885.67;812.07;;;9.70;99.90;;;;;;5051387;28;20543;-80
2023/12/21 10:07:39;;;;;;;874.73;798.37;;;9.70;99.90;;;;;;5051615;28;20554;-80
2023/12/21 10:10:07;;;;;;;901.17;825.97;;;9.60;99.90;;;;;;5051727;28;20524;-79
2023/12/21 10:12:35;;;;;;;897.30;821.87;;;9.70;99.90;;;;;;5052226;28;20935;-81
2023/12/21 10:15:03;;;;;;;875.30;804.03;;;9.80;99.90;;;;;;5051841;28;20455;-80
2023/12/21 10:17:32;;;;;;;877.13;802.90;;;9.90;99.90;;;;;;5051289;28;20439;-79
2023/12/21 10:20:00;;;;;;;868.70;795.10;;;9.70;99.90;;;;;;5051358;28;20497;-80
2023/12/21 10:22:28;;;;;;;906.73;832.57;;;9.80;99.90;;;;;;5051118;28;20462;-80
2023/12/21 10:24:55;;;;;;;878.70;803.17;;;9.70;99.90;;;;;;5050905;28;20462;-79
2023/12/21 10:27:23;;;;;;;889.27;812.37;;;9.90;99.90;;;;;;5051283;28;20455;-80
2023/12/21 10:29:56;;;;;;;885.43;810.47;;;9.90;99.90;;;;;;5051485;28;20861;-80
2023/12/21 10:32:23;;;;;;;889.07;810.87;;;10.00;99.90;;;;;;5051325;28;20934;-80
2023/12/21 10:34:50;;;;;;;871.07;793.27;;;10.00;99.90;;;;;;5051810;28;20451;-80
2023/12/21 10:37:17;;;;;;;896.07;817.50;;;10.00;99.90;;;;;;5050993;28;20457;-80
2023/12/21 10:39:44;;;;;;;914.00;835.97;;;10.00;99.90;;;;;;5051562;28;20787;-81
2023/12/21 10:42:14;;;;;;;908.93;830.07;;;9.90;99.90;;;;;;5050390;28;20964;-80
2023/12/21 10:44:44;;;;;;;922.87;844.90;;;10.00;99.90;;;;;;5051788;28;20455;-79
2023/12/21 10:47:13;;;;;;;937.60;858.70;;;10.00;99.90;;;;;;5051486;28;20462;-81
2023/12/21 10:49:40;;;;;;;897.70;820.83;;;10.00;99.90;;;;;;5051108;28;20563;-81
2023/12/21 10:52:08;;;;;;;970.60;890.40;;;10.00;99.90;;;;;;5054991;28;20463;-80
2023/12/21 10:54:36;;;;;;;965.93;888.97;;;9.90;99.90;;;;;;5055102;28;20661;-83
2023/12/21 10:57:05;;;;;;;984.07;904.77;;;10.00;99.90;;;;;;5055338;28;20443;-80
2023/12/21 10:59:33;;;;;;;949.37;868.00;;;10.00;99.90;;;;;;5055447;28;20505;-80
2023/12/21 11:02:00;;;;;;;948.13;865.17;;;10.10;99.90;;;;;;5055321;28;20509;-82
2023/12/21 11:04:29;;;;;;;958.57;878.37;;;10.10;99.90;;;;;;5054898;28;20984;-80
2023/12/21 11:06:57;;;;;;;968.70;886.40;;;10.10;99.90;;;;;;5055331;28;20517;-81
2023/12/21 11:09:25;;;;;;;975.17;887.27;;;10.00;99.90;;;;;;5054408;28;21018;-80
2023/12/21 11:11:57;;;;;;;938.97;852.37;;;10.00;99.90;;;;;;5054539;28;20506;-81
2023/12/21 11:14:23;;;;;;;939.30;851.17;;;10.10;99.90;;;;;;5055242;28;20469;-80
2023/12/21 11:16:55;;;;;;;1051.60;962.43;;;10.10;99.90;;;;;;5055322;28;20451;-81
2023/12/21 11:19:27;;;;;;;1030.77;943.07;;;10.20;99.90;;;;;;5055467;28;20821;-82
2023/12/21 11:21:56;;;;;;;1011.60;926.57;;;10.20;99.90;;;;;;5055263;28;20921;-79
2023/12/21 11:24:24;;;;;;;1029.53;945.07;;;10.20;99.90;;;;;;5054496;28;20943;-80
2023/12/21 11:26:51;;;;;;;1075.63;988.43;;;10.20;99.90;;;;;;5054643;28;20451;-80
2023/12/21 11:29:26;;;;;;;1019.17;934.33;;;10.30;99.90;;;;;;5054852;28;20447;-83
2023/12/21 11:31:54;;;;;;;987.47;903.63;;;10.30;99.90;;;;;;5054971;28;20843;-81
2023/12/21 11:34:34;;;;;;;987.37;903.90;;;10.30;99.90;;;;;;5054759;28;20483;-80
2023/12/21 11:37:17;;;;;;;986.93;905.17;;;10.30;99.90;;;;;;5054357;28;20442;-79
2023/12/21 11:39:45;;;;;;;980.03;899.13;;;10.40;99.90;;;;;;5053603;28;20447;-81
2023/12/21 11:42:12;;;;;;;976.23;895.33;;;10.40;99.90;;;;;;5054413;28;20451;-84
2023/12/21 11:44:39;;;;;;;942.17;860.80;;;10.40;99.90;;;;;;5054077;28;20838;-82
2023/12/21 11:47:07;;;;;;;950.77;867.97;;;10.40;99.90;;;;;;5054080;28;20443;-82
2023/12/21 11:49:34;;;;;;;937.20;854.03;;;10.40;99.90;;;;;;5054321;28;20454;-83
2023/12/21 11:52:01;;;;;;;928.87;846.83;;;10.40;99.90;;;;;;5054083;28;20490;-83
2023/12/21 11:54:30;;;;;;;945.10;860.70;;;10.40;99.90;;;;;;5052710;28;20970;-80
2023/12/21 11:57:11;;;;;;;921.50;840.03;;;10.50;99.90;;;;;;5054234;28;20447;-82
2023/12/21 11:59:38;;;;;;;907.70;826.70;;;10.50;99.90;;;;;;5054129;28;20455;-81
2023/12/21 12:02:07;;;;;;;898.80;815.90;;;10.50;99.90;;;;;;5052318;28;20451;-82
2023/12/21 12:04:34;;;;;;;885.53;804.97;;;10.50;99.90;;;;;;5052357;28;20451;-81
2023/12/21 12:07:04;;;;;;;897.87;814.10;;;10.50;99.90;;;;;;5053461;28;20451;-83
2023/12/21 12:09:32;;;;;;;888.20;807.33;;;10.50;99.90;;;;;;5053182;28;20981;-83
2023/12/21 12:11:59;;;;;;;897.07;813.83;;;10.60;99.90;;;;;;5053894;28;20486;-82
2023/12/21 12:14:29;;;;;;;913.47;831.97;;;10.60;99.90;;;;;;5053728;28;20546;-82
2023/12/21 12:16:58;;;;;;;917.37;836.87;;;10.70;99.90;;;;;;5054047;28;20447;-81
2023/12/21 12:19:26;;;;;;;912.60;833.47;;;10.80;99.90;;;;;;5054714;28;20447;-79
2023/12/21 12:21:54;;;;;;;916.07;837.73;;;10.90;99.90;;;;;;5053406;28;20447;-80
2023/12/21 12:24:22;;;;;;;904.83;836.67;;;11.00;99.90;;;;;;5051559;28;20455;-78
2023/12/21 12:26:51;;;;;;;919.87;850.67;;;11.00;99.90;;;;;;5053540;28;20462;-79
2023/12/21 12:29:18;;;;;;;908.10;838.20;;;11.00;99.90;;;;;;5053903;28;20906;-78
2023/12/21 12:31:45;;;;;;;897.80;831.30;;;11.00;99.90;;;;;;5054087;28;20477;-79
2023/12/21 12:34:13;;;;;;;895.00;826.90;;;11.00;99.90;;;;;;5053464;28;20454;-77
2023/12/21 12:36:40;;;;;;;907.50;841.20;;;11.10;99.90;;;;;;5053845;28;20517;-81
2023/12/21 12:39:07;;;;;;;903.93;839.83;;;11.00;99.90;;;;;;5053306;28;20755;-79
2023/12/21 12:41:35;;;;;;;913.00;851.00;;;11.00;99.90;;;;;;5053204;28;20444;-79
2023/12/21 12:44:07;;;;;;;913.40;850.47;;;11.00;99.90;;;;;;5052899;28;20510;-79
2023/12/21 12:46:36;;;;;;;918.43;854.90;;;10.90;99.90;;;;;;5053816;28;20451;-79
2023/12/21 12:49:03;;;;;;;910.53;853.13;;;10.90;99.90;;;;;;5053456;28;20443;-78
2023/12/21 12:51:31;;;;;;;891.27;833.00;;;10.90;99.90;;;;;;5053681;28;20853;-86
2023/12/21 12:54:00;;;;;;;908.07;850.83;;;10.80;99.90;;;;;;5053333;28;20502;-86
2023/12/21 12:56:26;;;;;;;905.87;847.73;;;10.90;99.90;;;;;;5053563;28;20456;-86
2023/12/21 12:58:55;;;;;;;913.57;855.13;;;10.90;99.90;;;;;;5053199;28;20455;-85
2023/12/21 13:01:26;;;;;;;876.73;825.73;;;11.00;99.90;;;;;;5053757;28;20448;-85
2023/12/21 13:03:56;;;;;;;882.77;831.80;;;11.10;99.90;;;;;;5052852;28;20461;-84
2023/12/21 13:06:23;;;;;;;868.27;818.23;;;11.10;99.90;;;;;;5053712;28;20443;-86
2023/12/21 13:08:50;;;;;;;851.50;804.97;;;11.10;99.90;;;;;;5052692;28;20464;-83
2023/12/21 13:11:17;;;;;;;855.77;808.73;;;11.10;99.90;;;;;;5052964;28;20558;-85
2023/12/21 13:13:43;;;;;;;812.30;770.90;;;11.00;99.90;;;;;;5052352;28;20483;-87
2023/12/21 13:16:18;;;;;;;820.67;775.80;;;11.00;99.90;;;;;;5053339;28;20456;-86
2023/12/21 13:18:47;;;;;;;793.83;746.70;;;10.70;99.90;;;;;;5053035;28;20450;-85
2023/12/21 13:21:14;;;;;;;802.87;752.60;;;10.50;99.90;;;;;;5053527;28;20872;-88
2023/12/21 13:23:42;;;;;;;801.47;749.20;;;10.40;99.90;;;;;;5052752;28;20612;-86
2023/12/21 13:26:09;;;;;;;820.13;764.53;;;10.40;99.90;;;;;;5053242;28;20450;-86
2023/12/21 13:28:38;;;;;;;817.27;762.63;;;10.50;99.90;;;;;;5052794;28;20486;-85
2023/12/21 13:31:05;;;;;;;821.80;767.23;;;10.40;99.90;;;;;;5053137;28;20510;-86
2023/12/21 13:33:32;;;;;;;846.20;788.10;;;10.40;99.90;;;;;;5052582;28;20459;-85
2023/12/21 13:36:01;;;;;;;860.40;798.90;;;10.30;99.90;;;;;;5052460;28;20451;-86
2023/12/21 13:38:28;;;;;;;869.93;807.13;;;10.30;99.90;;;;;;5052138;28;20521;-85
2023/12/21 13:40:55;;;;;;;878.83;813.93;;;10.30;99.90;;;;;;5053030;28;20479;-84
2023/12/21 13:43:22;;;;;;;895.47;829.00;;;10.30;99.90;;;;;;5052565;28;20451;-85
2023/12/21 13:45:49;;;;;;;879.03;812.00;;;10.30;99.90;;;;;;5052711;28;20453;-84
2023/12/21 13:48:18;;;;;;;885.10;819.33;;;10.30;99.90;;;;;;5052496;28;20530;-85
2023/12/21 13:50:45;;;;;;;877.37;811.70;;;10.30;99.90;;;;;;5052547;28;20479;-83
2023/12/21 13:53:14;;;;;;;867.97;802.60;;;10.50;99.90;;;;;;5052530;28;20800;-84
2023/12/21 13:55:41;;;;;;;861.63;796.47;;;10.50;99.90;;;;;;5052846;28;20447;-82
2023/12/21 13:58:08;;;;;;;837.37;775.57;;;10.40;99.90;;;;;;5052377;28;20447;-83
2023/12/21 14:00:35;;;;;;;844.57;782.03;;;10.40;99.90;;;;;;5052001;28;20454;-77
2023/12/21 14:03:02;;;;;;;850.87;787.50;;;10.40;99.90;;;;;;5051206;28;20451;-77
2023/12/21 14:05:29;;;;;;;844.17;781.50;;;10.40;99.90;;;;;;5051175;28;20455;-77
2023/12/21 14:07:56;;;;;;;845.27;784.10;;;10.30;99.90;;;;;;5050928;28;20447;-77
2023/12/21 14:10:25;;;;;;;850.00;786.40;;;10.20;99.90;;;;;;5050191;28;20466;-77
2023/12/21 14:12:52;;;;;;;835.30;776.20;;;10.30;99.90;;;;;;5051524;28;20989;-78
2023/12/21 14:15:19;;;;;;;860.97;800.20;;;10.30;99.90;;;;;;5051001;28;20451;-79
2023/12/21 14:17:45;;;;;;;840.30;783.80;;;10.20;99.90;;;;;;5051278;28;20455;-79
2023/12/21 14:20:12;;;;;;;848.10;788.60;;;10.00;99.90;;;;;;5051919;28;20748;-78
2023/12/21 14:22:39;;;;;;;856.23;793.57;;;10.10;99.90;;;;;;5051263;28;20462;-80
2023/12/21 14:25:08;;;;;;;883.70;817.23;;;10.10;99.90;;;;;;5049200;28;20542;-79
2023/12/21 14:27:38;;;;;;;894.80;825.73;;;10.10;99.90;;;;;;5051547;28;20463;-80
2023/12/21 14:30:08;;;;;;;900.57;827.67;;;10.20;99.90;;;;;;5051769;28;20450;-80
2023/12/21 14:32:35;;;;;;;894.90;824.50;;;10.20;99.90;;;;;;5051829;28;20506;-79
2023/12/21 14:35:03;;;;;;;917.90;849.60;;;10.10;99.90;;;;;;5050736;28;20469;-79
2023/12/21 14:37:30;;;;;;;942.10;873.53;;;10.20;99.90;;;;;;5050764;28;20446;-80
2023/12/21 14:39:56;;;;;;;889.23;822.87;;;10.20;99.90;;;;;;5050255;28;20642;-81
2023/12/21 14:42:23;;;;;;;894.63;827.27;;;10.10;99.90;;;;;;5030841;28;20444;-81
2023/12/21 14:44:53;;;;;;;882.80;816.37;;;10.10;99.90;;;;;;5030635;28;20816;-78
2023/12/21 14:47:19;;;;;;;874.07;809.47;;;10.10;99.90;;;;;;5030107;28;20454;-77
2023/12/21 14:49:46;;;;;;;863.37;802.67;;;9.90;99.90;;;;;;5030765;28;20467;-80
2023/12/21 14:52:17;;;;;;;828.97;774.50;;;9.80;99.90;;;;;;5030239;28;20488;-77
2023/12/21 14:54:44;;;;;;;825.10;771.80;;;9.80;99.90;;;;;;5030219;28;20962;-77
2023/12/21 14:57:12;;;;;;;742.60;708.40;;;9.60;99.90;;;;;;5030337;28;20484;-77
2023/12/21 14:59:39;;;;;;;551.43;533.57;;;9.40;99.90;;;;;;5029705;28;20855;-78
2023/12/21 15:02:07;;;;;;;743.47;710.53;;;9.40;99.90;;;;;;5030176;28;20444;-78
2023/12/21 15:04:36;;;;;;;806.60;764.63;;;9.40;99.90;;;;;;5030472;28;20456;-77
2023/12/21 15:07:03;;;;;;;777.43;740.57;;;9.40;99.90;;;;;;5029941;28;20865;-77
2023/12/21 15:09:30;;;;;;;797.40;757.57;;;9.40;99.90;;;;;;5030343;28;20842;-77
2023/12/21 15:11:57;;;;;;;863.77;811.27;;;9.50;99.90;;;;;;5030324;28;20476;-78
2023/12/21 15:14:24;;;;;;;871.97;817.77;;;9.50;99.90;;;;;;5030328;28;20452;-77
2023/12/21 15:16:51;;;;;;;874.90;818.30;;;9.50;99.90;;;;;;5030800;28;20452;-77
2023/12/21 15:19:19;;;;;;;873.37;816.87;;;9.60;99.90;;;;;;5030952;28;20855;-76
2023/12/21 15:21:47;;;;;;;786.07;742.93;;;9.60;99.90;;;;;;5031195;28;20948;-78
2023/12/21 15:24:14;;;;;;;568.67;541.43;;;9.60;99.90;;;;;;5030856;28;20484;-79
2023/12/21 15:26:41;;;;;;;807.73;757.67;;;9.70;99.90;;;;;;5031566;28;20482;-81
2023/12/21 15:29:08;;;;;;;925.33;859.13;;;12.70;99.90;;;;;;5031319;28;20810;-80
2023/12/21 15:31:36;;;;;;;949.93;881.70;;;13.40;99.90;;;;;;5031290;28;20926;-79
2023/12/21 15:34:03;;;;;;;848.30;788.00;;;11.80;99.90;;;;;;5031166;28;20534;-82
2023/12/21 15:36:31;;;;;;;959.37;887.43;;;13.40;99.90;;;;;;5031898;28;20456;-80
2023/12/21 15:38:58;;;;;;;900.93;835.63;;;10.90;99.90;;;;;;5034017;28;20499;-80
2023/12/21 15:41:26;;;;;;;904.67;837.37;;;10.80;99.90;;;;;;5034294;28;20511;-80
2023/12/21 15:43:53;;;;;;;889.83;823.10;;;10.10;99.90;;;;;;5034611;28;20444;-80
2023/12/21 15:46:21;;;;;;;889.73;822.33;;;11.10;99.90;;;;;;5035008;28;20462;-79
2023/12/21 15:48:48;;;;;;;860.57;797.67;;;11.10;99.90;;;;;;5034682;28;20502;-79
2023/12/21 15:51:15;;;;;;;851.80;788.57;;;9.80;99.90;;;;;;5034421;28;20558;-80
2023/12/21 15:53:43;;;;;;;867.73;801.17;;;9.30;99.90;;;;;;5034217;28;20480;-79
2023/12/21 15:56:12;;;;;;;884.87;815.90;;;10.20;99.90;;;;;;5034348;28;20444;-79
2023/12/21 15:58:39;;;;;;;885.27;814.63;;;9.30;99.90;;;;;;5034412;28;20538;-78
2023/12/21 16:01:06;;;;;;;916.83;846.20;;;10.00;99.90;;;;;;5034161;28;20952;-79
2023/12/21 16:03:33;;;;;;;779.23;723.03;;;9.80;99.90;;;;;;5032754;28;20451;-81
2023/12/21 16:06:00;;;;;;;852.60;790.00;;;10.00;99.90;;;;;;5032930;28;20920;-81
2023/12/21 16:08:27;;;;;;;893.27;826.07;;;9.30;99.90;;;;;;5032890;28;20970;-81
2023/12/21 16:10:55;;;;;;;896.80;831.13;;;9.30;99.90;;;;;;5033447;28;20447;-80
2023/12/21 16:13:22;;;;;;;783.07;723.77;;;9.80;99.90;;;;;;5033391;28;20679;-82
2023/12/21 16:15:50;;;;;;;756.57;697.30;;;9.50;99.90;;;;;;5033968;28;20463;-79
2023/12/21 16:18:20;;;;;;;783.67;724.30;;;9.10;99.90;;;;;;5033426;28;20539;-82
2023/12/21 16:20:47;;;;;;;784.30;725.30;;;9.30;99.90;;;;;;5033072;28;20487;-80
2023/12/21 16:23:15;;;;;;;837.93;776.33;;;9.00;99.90;;;;;;5032869;28;20454;-80
2023/12/21 16:25:42;;;;;;;840.67;780.87;;;9.20;99.90;;;;;;5033594;28;20538;-79
2023/12/21 16:28:10;;;;;;;837.90;781.83;;;9.00;99.90;;;;;;5032941;28;20470;-80
2023/12/21 16:30:37;;;;;;;695.07;646.57;;;8.90;99.90;;;;;;5033504;28;20882;-81
2023/12/21 16:33:04;;;;;;;701.63;655.77;;;8.90;99.90;;;;;;5032874;28;20659;-79
2023/12/21 16:35:31;;;;;;;601.37;575.53;;;8.60;99.90;;;;;;5033472;28;20452;-79
2023/12/21 16:37:58;;;;;;;728.67;685.90;;;8.40;99.90;;;;;;5033290;28;20515;-81
2023/12/21 16:40:25;;;;;;;773.97;724.67;;;8.10;99.90;;;;;;5033050;28;20828;-83
2023/12/21 16:42:55;;;;;;;780.47;728.57;;;10.70;99.90;;;;;;5033211;28;20491;-82
2023/12/21 16:45:23;;;;;;;867.97;805.20;;;10.50;99.90;;;;;;5033418;28;20452;-80
2023/12/21 16:47:54;;;;;;;804.33;744.00;;;10.40;99.90;;;;;;5032885;28;20459;-81
2023/12/21 16:50:25;;;;;;;856.00;793.77;;;9.90;99.90;;;;;;5034129;28;20522;-82
2023/12/21 16:52:52;;;;;;;878.53;813.73;;;9.80;99.90;;;;;;5033321;28;20471;-84
2023/12/21 16:55:19;;;;;;;886.67;822.07;;;10.30;99.90;;;;;;5033338;28;20783;-82
2023/12/21 16:57:46;;;;;;;926.57;856.07;;;9.60;99.90;;;;;;5033260;28;20448;-83
2023/12/21 17:00:14;;;;;;;948.43;874.33;;;9.10;99.90;;;;;;5032421;28;20462;-81
2023/12/21 17:02:42;;;;;;;940.53;863.20;;;9.30;99.90;;;;;;5033044;28;20502;-82
2023/12/21 17:05:09;;;;;;;957.60;877.57;;;9.30;99.90;;;;;;5032569;28;20458;-82
2023/12/21 17:07:48;;;;;;;977.97;898.17;;;9.30;99.90;;;;;;5033246;28;20451;-82
2023/12/21 17:10:18;;;;;;;991.60;915.60;;;8.70;99.90;;;;;;5033152;28;20494;-84
2023/12/21 17:12:45;;;;;;;966.33;889.13;;;8.60;99.90;;;;;;5032426;28;20506;-83
2023/12/21 17:15:12;;;;;;;1023.57;938.47;;;9.00;99.90;;;;;;5033040;28;20448;-86
2023/12/21 17:17:39;;;;;;;979.23;897.20;;;8.50;99.90;;;;;;5032495;28;20456;-85
2023/12/21 17:20:08;;;;;;;977.33;896.03;;;7.80;99.90;;;;;;5033765;28;20448;-85
2023/12/21 17:22:35;;;;;;;1032.53;933.87;;;8.20;99.90;;;;;;5033360;28;20452;-83
2023/12/21 17:25:02;;;;;;;1005.57;905.90;;;7.80;99.90;;;;;;5033534;28;20453;-87
2023/12/21 17:27:29;;;;;;;1010.47;914.83;;;7.50;99.90;;;;;;5033225;28;20495;-87
2023/12/21 17:29:56;;;;;;;1000.17;906.30;;;7.40;99.90;;;;;;5033422;28;20448;-87
2023/12/21 17:32:23;;;;;;;1007.70;913.40;;;7.60;99.90;;;;;;5033466;28;20483;-87
2023/12/21 17:34:50;;;;;;;1014.47;919.90;;;7.70;99.90;;;;;;5032853;28;20447;-86
2023/12/21 17:37:18;;;;;;;1028.13;930.33;;;7.30;99.90;;;;;;5032641;28;20561;-88
2023/12/21 17:39:47;;;;;;;1015.23;916.63;;;7.20;99.90;;;;;;5032776;28;20547;-88
2023/12/21 17:42:15;;;;;;;1016.33;916.37;;;7.10;99.90;;;;;;5032895;28;20804;-85
2023/12/21 17:44:42;;;;;;;1030.70;928.50;;;7.00;99.90;;;;;;5032766;28;20510;-89
2023/12/21 17:47:09;;;;;;;1039.10;935.50;;;7.00;99.90;;;;;;5032752;28;20932;-87
2023/12/21 17:49:36;;;;;;;1034.77;928.90;;;7.30;99.90;;;;;;5032400;28;20457;-82
2023/12/21 17:52:03;;;;;;;1045.60;937.63;;;7.30;99.90;;;;;;5032790;28;20472;-83
2023/12/21 17:54:31;;;;;;;1039.70;932.40;;;7.40;99.90;;;;;;5031970;28;20943;-84
2023/12/21 17:56:58;;;;;;;1060.27;953.97;;;7.60;99.90;;;;;;5032440;28;20456;-83
2023/12/21 17:59:25;;;;;;;1202.30;999.90;;;7.70;99.90;;;;;;5031609;28;20474;-83
2023/12/21 18:01:53;;;;;;;1153.23;999.90;;;7.80;99.90;;;;;;5030925;28;20483;-86
2023/12/21 18:04:20;;;;;;;1102.63;997.47;;;7.60;99.90;;;;;;5031059;28;20455;-83
2023/12/21 18:06:47;;;;;;;1086.07;982.17;;;7.50;99.90;;;;;;5031085;28;20452;-88
2023/12/21 18:09:14;;;;;;;1131.73;999.90;;;7.60;99.90;;;;;;5031299;28;20463;-84
2023/12/21 18:11:44;;;;;;;1144.20;999.90;;;7.40;99.90;;;;;;5031282;28;20499;-82
2023/12/21 18:14:11;;;;;;;1011.87;918.77;;;7.40;99.90;;;;;;5031818;28;20483;-83
2023/12/21 18:16:38;;;;;;;966.13;884.03;;;7.30;99.90;;;;;;5031964;28;20452;-83
2023/12/21 18:19:05;;;;;;;959.57;874.23;;;7.40;99.90;;;;;;5031693;28;20684;-83
2023/12/21 18:21:34;;;;;;;987.37;892.77;;;7.40;99.90;;;;;;5032302;28;20459;-84
2023/12/21 18:24:02;;;;;;;1005.10;904.87;;;7.50;99.90;;;;;;5032013;28;20466;-84
2023/12/21 18:26:30;;;;;;;1016.23;911.50;;;7.70;99.90;;;;;;5032573;28;20466;-85
2023/12/21 18:28:59;;;;;;;1006.87;901.90;;;7.80;99.90;;;;;;5031996;28;20463;-82
2023/12/21 18:31:26;;;;;;;1016.63;907.23;;;8.00;99.90;;;;;;5032098;28;20546;-89
2023/12/21 18:33:52;;;;;;;1009.10;900.93;;;8.10;99.90;;;;;;5031970;28;20459;-81
2023/12/21 18:36:19;;;;;;;1016.40;934.00;;;8.40;99.90;;;;;;5031997;28;20507;-86
2023/12/21 18:38:48;;;;;;;538.73;520.43;;;5.50;99.90;;;;;;5032237;28;20781;-81
2023/12/21 18:41:15;;;;;;;230.33;222.27;;;5.60;99.90;;;;;;5032443;28;20588;-83
2023/12/21 18:43:42;;;;;;;608.97;589.67;;;4.40;99.90;;;;;;5031423;28;20534;-85
2023/12/21 18:46:10;;;;;;;848.73;806.87;;;4.50;99.90;;;;;;5032070;28;20852;-85
2023/12/21 18:48:37;;;;;;;980.37;905.57;;;5.40;99.90;;;;;;5031608;28;20982;-88
2023/12/21 18:51:04;;;;;;;1025.57;941.53;;;5.90;99.90;;;;;;5032249;28;20442;-86
2023/12/21 18:53:31;;;;;;;1005.97;928.63;;;6.00;99.90;;;;;;5029855;28;20488;-87
2023/12/21 18:55:58;;;;;;;999.03;920.10;;;5.70;99.90;;;;;;5030914;28;20480;-87
2023/12/21 18:58:25;;;;;;;1006.87;926.87;;;5.60;99.90;;;;;;5030585;28;20458;-87
2023/12/21 19:00:53;;;;;;;1006.80;923.70;;;5.60;99.90;;;;;;5038828;28;20539;-87
2023/12/21 19:03:21;;;;;;;1006.63;917.37;;;5.70;99.90;;;;;;5049984;28;20452;-87
2023/12/21 19:05:48;;;;;;;1030.03;947.50;;;5.70;99.90;;;;;;5050124;28;20456;-86
2023/12/21 19:08:15;;;;;;;1053.77;968.57;;;5.70;99.90;;;;;;5049844;28;20939;-87
2023/12/21 19:10:43;;;;;;;1054.97;966.37;;;5.70;99.90;;;;;;5049788;28;20483;-87
2023/12/21 19:13:11;;;;;;;1039.37;950.83;;;5.80;99.90;;;;;;5052817;28;20476;-87
2023/12/21 19:15:38;;;;;;;1165.37;999.90;;;5.90;99.90;;;;;;5053929;28;20555;-86
2023/12/21 19:18:05;;;;;;;1060.87;960.50;;;5.80;99.90;;;;;;5054325;28;20456;-85
2023/12/21 19:20:33;;;;;;;1079.83;976.87;;;5.60;99.90;;;;;;5054507;28;20486;-85
2023/12/21 19:23:00;;;;;;;1038.67;948.93;;;5.40;99.90;;;;;;5054464;28;20444;-84
2023/12/21 19:25:28;;;;;;;1112.10;999.90;;;5.90;99.90;;;;;;5054638;28;20453;-86
2023/12/21 19:27:55;;;;;;;1156.03;999.90;;;5.70;99.90;;;;;;5054396;28;20548;-84
2023/12/21 19:30:22;;;;;;;1107.73;999.90;;;6.00;99.90;;;;;;5054092;28;21014;-84
2023/12/21 19:32:51;;;;;;;1208.70;999.90;;;5.90;99.90;;;;;;5054232;28;20525;-85
2023/12/21 19:35:18;;;;;;;1250.13;999.90;;;6.00;99.90;;;;;;5054158;28;20454;-85
2023/12/21 19:37:47;;;;;;;1257.73;999.90;;;6.10;99.90;;;;;;5054912;28;20456;-85
2023/12/21 19:40:15;;;;;;;1253.03;999.90;;;6.00;99.90;;;;;;5054768;28;20498;-85
2023/12/21 19:42:42;;;;;;;1273.10;999.90;;;6.00;99.90;;;;;;5054227;28;20961;-85
2023/12/21 19:45:09;;;;;;;1267.60;999.90;;;6.40;99.90;;;;;;5055232;28;20482;-85
2023/12/21 19:47:36;;;;;;;1285.00;999.90;;;5.90;99.90;;;;;;5055200;28;20935;-83
2023/12/21 19:50:03;;;;;;;1301.57;999.90;;;6.00;99.90;;;;;;5054871;28;20454;-84
2023/12/21 19:52:30;;;;;;;1304.57;999.90;;;6.00;99.90;;;;;;5055224;28;20511;-83
2023/12/21 19:54:58;;;;;;;1310.40;999.90;;;5.90;99.90;;;;;;5054813;28;20464;-86
2023/12/21 19:57:26;;;;;;;1309.83;999.90;;;5.80;99.90;;;;;;5054560;28;20533;-83
2023/12/21 19:59:53;;;;;;;1275.40;999.90;;;5.70;99.90;;;;;;5054156;28;20452;-83
2023/12/21 20:02:20;;;;;;;1303.70;999.90;;;5.70;99.90;;;;;;5053858;28;20533;-83
2023/12/21 20:04:47;;;;;;;1169.10;999.90;;;5.80;99.90;;;;;;5053907;28;20557;-84
2023/12/21 20:07:13;;;;;;;1250.23;999.90;;;5.80;99.90;;;;;;5054123;28;20839;-84
2023/12/21 20:09:40;;;;;;;1275.60;999.90;;;5.90;99.90;;;;;;5053567;28;20458;-85
2023/12/21 20:12:09;;;;;;;1276.03;999.90;;;6.00;99.90;;;;;;5053537;28;20830;-85
2023/12/21 20:14:36;;;;;;;1296.40;999.90;;;5.40;99.90;;;;;;5053698;28;20460;-85
2023/12/21 20:17:03;;;;;;;1293.37;999.90;;;5.50;99.90;;;;;;5054202;28;20541;-85
2023/12/21 20:19:30;;;;;;;1272.63;999.90;;;6.00;99.90;;;;;;5054327;28;20500;-85
2023/12/21 20:21:57;;;;;;;1308.00;999.90;;;5.50;99.90;;;;;;5054556;28;20546;-82
2023/12/21 20:24:24;;;;;;;1255.20;999.90;;;6.00;99.90;;;;;;5052869;28;20453;-82
2023/12/21 20:26:51;;;;;;;1238.27;999.90;;;6.00;99.90;;;;;;5054458;28;20490;-82
2023/12/21 20:29:19;;;;;;;1230.10;999.90;;;5.60;99.90;;;;;;5053984;28;20454;-82
2023/12/21 20:31:46;;;;;;;1209.93;999.90;;;5.80;99.90;;;;;;5054450;28;20452;-82
2023/12/21 20:34:13;;;;;;;1213.27;999.90;;;5.50;99.90;;;;;;5053898;28;20997;-82
2023/12/21 20:36:40;;;;;;;1205.53;999.90;;;5.90;99.90;;;;;;5054143;28;20463;-81
2023/12/21 20:39:07;;;;;;;1220.80;999.90;;;5.80;99.90;;;;;;5053767;28;20457;-81
2023/12/21 20:41:34;;;;;;;1226.17;999.90;;;5.80;99.90;;;;;;5053959;28;20458;-81